LIPY/AOI METAR and TAF weather

Enter ICAO airport designator
Station Type Date Time Source
LIPY METAR 2019/12/07 06:50 UTC NOAA

LIPY 070650Z 23002KT 2000 BR NSC 05/05 Q1019


Station Type Date Time Source
LIPY Decoded METAR 2019/12/07 06:50 UTC NOAA

Falconara, Italy (LIPY) 43-37N 013-22E 10M
Dec 07, 2019 - 01:50 AM EST / 2019.12.07 0650 UTC
Wind: from the SW (230 degrees) at 2 MPH (2 KT):0
Visibility: 1 mile(s):0
Weather: mist
Temperature: 41 F (5 C)
Dew Point: 41 F (5 C)
Relative Humidity: 100%
Pressure (altimeter): 30.09 in. Hg (1019 hPa)
ob: LIPY 070650Z 23002KT 2000 BR NSC 05/05 Q1019
cycle: 7

Station Type Date Time Source
LIPY TAF 2019/12/07 06:21 UTC NOAA

TAF LIPY 070500Z 0706/0806 VRB06KT 3000 BR SCT016
BECMG 0707/0709 7000

Example: see airport list